Time;durP1;ratioP1;P1;durP2;ratioP2;P2;SDS_P1;SDS_P2;PMS_P1;PMS_P2;Temp;Humidity;BMP_temperature;BMP_pressure;BME280_temperature;BME280_humidity;BME280_pressure;Samples;Min_cycle;Max_cycle;Signal;HPM_P1;HPM_P2
2023/05/05 00:00:30;;;;;;;6.60;4.00;;;;;;;15.70;50.61;99595.38;4344999;32;33790;-88
2023/05/05 00:02:57;;;;;;;7.65;3.80;;;;;;;15.52;51.65;99594.47;4350158;32;35181;-83
2023/05/05 00:05:25;;;;;;;6.65;3.33;;;;;;;15.58;51.63;99591.84;4344662;32;33969;-84
2023/05/05 00:07:53;;;;;;;7.65;3.60;;;;;;;15.56;52.11;99597.94;4353860;32;33456;-84
2023/05/05 00:10:20;;;;;;;7.55;4.45;;;;;;;14.84;52.57;99592.66;4338326;32;34026;-88
2023/05/05 00:12:48;;;;;;;6.53;3.53;;;;;;;15.30;52.19;99597.94;4351048;32;34227;-84
2023/05/05 00:15:17;;;;;;;7.87;4.12;;;;;;;15.44;51.63;99592.72;4350532;32;33912;-84
2023/05/05 00:17:45;;;;;;;7.07;3.83;;;;;;;15.42;51.42;99595.34;4336817;33;33467;-87
2023/05/05 00:20:12;;;;;;;6.95;3.58;;;;;;;15.33;51.74;99587.50;4331817;33;33784;-87
2023/05/05 00:22:39;;;;;;;8.00;3.80;;;;;;;14.92;51.27;99593.53;4344648;32;34384;-84
2023/05/05 00:25:07;;;;;;;6.50;3.85;;;;;;;15.18;51.62;99595.31;4345503;32;34707;-85
2023/05/05 00:27:35;;;;;;;6.70;3.53;;;;;;;15.14;50.97;99586.62;4336019;32;34200;-84
2023/05/05 00:30:05;;;;;;;8.45;3.80;;;;;;;15.28;51.29;99587.50;4348717;32;33640;-85
2023/05/05 00:32:35;;;;;;;6.35;3.80;;;;;;;14.99;51.92;99584.84;4349349;32;34265;-83
2023/05/05 00:35:02;;;;;;;7.87;3.87;;;;;;;15.17;51.69;99586.62;4349978;32;34599;-84
2023/05/05 00:37:30;;;;;;;6.68;3.83;;;;;;;15.10;51.63;99587.47;4352271;32;34472;-84
2023/05/05 00:39:58;;;;;;;7.50;3.60;;;;;;;15.20;51.41;99585.75;4349493;32;34003;-85
2023/05/05 00:42:25;;;;;;;7.18;4.03;;;;;;;15.10;51.65;99584.88;4354207;32;34939;-85
2023/05/05 00:44:53;;;;;;;7.05;3.62;;;;;;;15.02;51.63;99590.09;4353018;32;34401;-85
2023/05/05 00:47:20;;;;;;;6.90;3.60;;;;;;;15.03;51.66;99590.94;4349677;32;34101;-84
2023/05/05 00:49:48;;;;;;;7.47;4.03;;;;;;;14.86;51.64;99584.84;4348454;32;34666;-87
2023/05/05 00:52:15;;;;;;;6.60;3.65;;;;;;;14.90;51.78;99591.81;4345196;32;32672;-88
2023/05/05 00:54:43;;;;;;;8.00;3.80;;;;;;;14.84;51.77;99585.69;4345248;32;34971;-85
2023/05/05 00:57:10;;;;;;;7.68;4.12;;;;;;;14.60;52.43;99576.06;4346195;32;33538;-88
2023/05/05 00:59:38;;;;;;;7.47;3.72;;;;;;;14.70;52.28;99573.47;4350440;32;33999;-85
2023/05/05 01:02:05;;;;;;;11.77;3.60;;;;;;;14.63;52.69;99576.97;4340181;32;34962;-87
2023/05/05 01:04:33;;;;;;;7.93;3.97;;;;;;;14.57;52.48;99570.84;4333115;32;33617;-87
2023/05/05 01:07:24;;;;;;;8.60;4.00;;;;;;;14.57;52.16;99564.75;4344081;33;33811;-85
2023/05/05 01:10:20;;;;;;;7.80;3.58;;;;;;;14.67;52.10;99573.50;4336864;32;34944;-85
2023/05/05 01:13:10;;;;;;;8.85;3.87;;;;;;;14.61;52.40;99571.72;4332727;32;34209;-84
2023/05/05 01:16:17;;;;;;;5.80;3.95;;;;;;;14.59;52.52;99573.47;4356270;32;33741;-85
2023/05/05 01:19:08;;;;;;;7.00;3.75;;;;;;;14.55;52.62;99571.72;4323972;33;33447;-85
2023/05/05 01:21:46;;;;;;;6.18;3.65;;;;;;;14.54;52.71;99565.59;4318176;33;34614;-86
2023/05/05 01:24:36;;;;;;;6.28;3.62;;;;;;;14.44;52.93;99562.94;4327794;32;33834;-86
2023/05/05 01:27:22;;;;;;;9.60;4.43;;;;;;;14.35;53.22;99568.97;4338047;32;34314;-86
2023/05/05 01:30:04;;;;;;;6.28;3.95;;;;;;;14.27;53.19;99565.47;4356712;32;33450;-85
2023/05/05 01:32:35;;;;;;;6.65;3.78;;;;;;;14.14;53.35;99564.56;4337965;33;34784;-85
2023/05/05 01:35:26;;;;;;;6.93;4.10;;;;;;;14.18;53.05;99568.06;4331562;32;34790;-88
2023/05/05 01:37:58;;;;;;;6.55;3.65;;;;;;;14.16;53.41;99570.62;4351843;32;33669;-89
2023/05/05 01:40:28;;;;;;;6.68;4.22;;;;;;;14.19;53.26;99561.97;4336337;32;32690;-88
2023/05/05 01:42:57;;;;;;;6.72;4.07;;;;;;;14.03;53.25;99564.50;4337213;33;34629;-85
2023/05/05 01:45:27;;;;;;;6.28;3.85;;;;;;;14.07;53.22;99574.09;4345223;32;33833;-86
2023/05/05 01:47:56;;;;;;;6.50;4.43;;;;;;;14.05;53.30;99570.62;4340825;32;34690;-85
2023/05/05 01:50:27;;;;;;;7.97;4.05;;;;;;;13.94;53.29;99566.19;4344945;32;33326;-88
2023/05/05 01:52:55;;;;;;;7.93;4.05;;;;;;;13.93;53.60;99564.44;4338849;32;34956;-88
2023/05/05 01:55:24;;;;;;;8.70;3.80;;;;;;;14.08;53.19;99565.38;4333082;32;33945;-88
2023/05/05 01:57:52;;;;;;;8.90;3.87;;;;;;;14.01;53.30;99563.59;4339074;33;34336;-89
2023/05/05 02:00:20;;;;;;;8.82;4.10;;;;;;;14.03;53.04;99561.03;4342405;32;33549;-85
2023/05/05 02:02:48;;;;;;;6.45;3.75;;;;;;;13.93;53.34;99564.44;4346278;32;34063;-86
2023/05/05 02:05:18;;;;;;;6.87;3.90;;;;;;;13.98;53.46;99562.72;4332300;32;33869;-84
2023/05/05 02:07:45;;;;;;;5.97;3.80;;;;;;;13.78;53.77;99570.44;4353017;32;33954;-85
2023/05/05 02:10:14;;;;;;;7.32;4.18;;;;;;;13.83;53.81;99563.53;4337125;32;33746;-86
2023/05/05 02:12:44;;;;;;;7.97;3.92;;;;;;;13.67;53.85;99559.94;4336183;32;33411;-84
2023/05/05 02:15:12;;;;;;;10.20;3.72;;;;;;;13.72;53.87;99563.47;4344083;33;34134;-85
2023/05/05 02:17:41;;;;;;;7.90;3.87;;;;;;;13.67;53.83;99559.06;4342570;32;34725;-88
2023/05/05 02:20:13;;;;;;;7.80;3.92;;;;;;;13.76;53.76;99564.34;4332174;32;33778;-86
2023/05/05 02:22:41;;;;;;;8.45;3.62;;;;;;;13.60;54.47;99566.87;4337773;32;34063;-83
2023/05/05 02:25:09;;;;;;;6.32;3.80;;;;;;;13.77;53.91;99568.69;4335391;32;33912;-84
2023/05/05 02:27:37;;;;;;;8.05;3.67;;;;;;;13.69;53.75;99559.97;4339746;32;34033;-85
2023/05/05 02:30:07;;;;;;;6.72;3.83;;;;;;;13.55;54.28;99567.69;4344020;32;33330;-86
2023/05/05 02:32:40;;;;;;;9.43;3.85;;;;;;;13.66;54.20;99559.94;4334061;32;34484;-85
2023/05/05 02:35:13;;;;;;;8.18;3.75;;;;;;;13.55;54.56;99567.69;4343646;32;35577;-84
2023/05/05 02:38:01;;;;;;;7.60;4.18;;;;;;;13.55;54.22;99565.94;4336225;32;34697;-90
2023/05/05 02:40:33;;;;;;;7.18;3.95;;;;;;;13.59;54.52;99567.69;4337119;33;33582;-84
2023/05/05 02:43:08;;;;;;;7.93;4.37;;;;;;;13.73;54.19;99561.72;4335423;32;34408;-88
2023/05/05 02:45:36;;;;;;;8.65;4.30;;;;;;;13.62;53.95;99561.66;4347623;32;34079;-86
2023/05/05 02:48:03;;;;;;;6.43;4.00;;;;;;;13.54;54.44;99561.59;4345551;32;32415;-85
2023/05/05 02:50:31;;;;;;;7.25;3.72;;;;;;;13.49;54.73;99557.22;4358305;32;33962;-85
2023/05/05 02:53:00;;;;;;;9.40;4.22;;;;;;;13.49;54.87;99562.44;4337443;32;34036;-85
2023/05/05 02:55:38;;;;;;;7.18;3.95;;;;;;;13.48;54.67;99561.53;4339233;33;34104;-84
2023/05/05 02:58:07;;;;;;;8.45;4.07;;;;;;;13.52;54.39;99559.81;4334193;32;34141;-84
2023/05/05 03:01:03;;;;;;;7.00;3.80;;;;;;;13.55;54.09;99558.13;4340470;32;33874;-86
2023/05/05 03:03:51;;;;;;;5.90;4.03;;;;;;;13.60;54.10;99560.78;4350672;32;35324;-87
2023/05/05 03:06:20;;;;;;;5.20;3.30;;;;;;;13.57;54.10;99559.03;4348788;32;34084;-86
2023/05/05 03:09:09;;;;;;;6.30;3.72;;;;;;;13.48;54.35;99560.66;4338177;32;34030;-87
2023/05/05 03:11:47;;;;;;;5.87;3.62;;;;;;;13.61;54.21;99560.78;4344008;33;34523;-85
2023/05/05 03:14:20;;;;;;;7.75;4.43;;;;;;;13.66;54.04;99557.34;4331994;32;34060;-84
2023/05/05 03:16:48;;;;;;;6.93;3.60;;;;;;;13.47;54.46;99553.72;4341972;32;34405;-84
2023/05/05 03:19:17;;;;;;;6.93;3.62;;;;;;;13.52;54.14;99552.88;4332316;32;33915;-86
2023/05/05 03:21:46;;;;;;;7.07;3.70;;;;;;;13.47;54.26;99559.81;4331693;32;33633;-85
2023/05/05 03:27:05;;;;;;;8.13;3.80;;;;;;;13.55;54.07;99552.91;4335011;32;35038;-85
2023/05/05 03:29:33;;;;;;;6.70;3.67;;;;;;;13.57;54.03;99551.22;4360354;32;33867;-88
2023/05/05 03:32:01;;;;;;;6.20;3.65;;;;;;;13.53;54.24;99551.19;4345671;32;34580;-83
2023/05/05 03:34:29;;;;;;;7.87;3.72;;;;;;;13.59;54.05;99564.22;4332387;33;33953;-87
2023/05/05 03:36:57;;;;;;;6.57;4.20;;;;;;;13.54;54.42;99560.72;4345067;32;34200;-84
2023/05/05 03:39:24;;;;;;;6.93;3.80;;;;;;;13.56;54.72;99561.59;4332356;33;33536;-85
2023/05/05 03:41:53;;;;;;;6.30;3.78;;;;;;;13.67;54.59;99564.28;4344469;32;34496;-88
2023/05/05 03:44:21;;;;;;;7.97;4.03;;;;;;;13.61;54.85;99554.72;4351758;32;34221;-85
2023/05/05 03:46:48;;;;;;;6.80;4.07;;;;;;;13.67;54.22;99561.66;4352019;32;34541;-85
2023/05/05 03:49:16;;;;;;;8.30;3.80;;;;;;;13.59;54.25;99559.00;4340363;32;33806;-85
2023/05/05 03:51:44;;;;;;;5.82;3.72;;;;;;;13.57;54.38;99561.63;4351596;32;34351;-86
2023/05/05 03:54:12;;;;;;;7.90;4.00;;;;;;;13.61;54.68;99562.53;4341391;32;33899;-86
2023/05/05 03:56:40;;;;;;;7.05;4.28;;;;;;;13.66;54.84;99565.16;4355472;32;34311;-85
2023/05/05 03:59:07;;;;;;;5.78;3.47;;;;;;;13.76;54.79;99577.38;4354028;32;34626;-85
2023/05/05 04:01:35;;;;;;;7.72;3.80;;;;;;;13.83;55.12;99576.56;4349670;32;33396;-86
2023/05/05 04:04:03;;;;;;;9.13;4.10;;;;;;;14.05;54.55;99568.00;4355170;32;34039;-85
2023/05/05 04:06:31;;;;;;;8.07;3.75;;;;;;;13.90;55.05;99578.31;4351022;32;35188;-86
2023/05/05 04:08:58;;;;;;;8.25;4.22;;;;;;;14.02;54.70;99572.34;4352355;32;34005;-86
2023/05/05 04:11:26;;;;;;;18.35;4.70;;;;;;;14.12;54.17;99572.34;4352724;32;33512;-86
2023/05/05 04:13:54;;;;;;;7.85;4.00;;;;;;;14.18;53.81;99573.28;4348914;32;33584;-86
2023/05/05 04:16:22;;;;;;;7.35;3.92;;;;;;;14.27;53.66;99573.31;4347274;32;33919;-91
2023/05/05 04:18:50;;;;;;;7.65;4.30;;;;;;;14.50;52.99;99569.06;4351266;32;34630;-88
2023/05/05 04:21:17;;;;;;;8.45;4.25;;;;;;;14.59;52.98;99568.25;4345637;32;33607;-86
2023/05/05 04:23:46;;;;;;;8.73;3.75;;;;;;;14.66;52.95;99571.72;4351003;32;33739;-87
2023/05/05 04:26:14;;;;;;;7.55;4.53;;;;;;;14.67;53.48;99569.13;4344616;33;34921;-92
2023/05/05 04:28:41;;;;;;;7.70;3.78;;;;;;;14.96;53.22;99566.56;4344668;33;33902;-87
2023/05/05 04:31:09;;;;;;;9.15;4.25;;;;;;;14.99;53.63;99571.78;4349972;32;34313;-91
2023/05/05 04:33:37;;;;;;;6.57;3.55;;;;;;;15.06;54.12;99573.56;4333821;32;33836;-89
2023/05/05 04:36:05;;;;;;;7.00;3.85;;;;;;;15.31;53.31;99574.44;4348647;32;33861;-90
2023/05/05 04:38:33;;;;;;;7.40;3.40;;;;;;;15.56;53.31;99577.91;4357508;32;34715;-88
2023/05/05 04:41:05;;;;;;;9.35;3.53;;;;;;;15.72;52.57;99580.53;4346976;32;33233;-88
2023/05/05 04:43:33;;;;;;;6.18;3.53;;;;;;;16.00;51.99;99584.84;4335182;32;33755;-88
2023/05/05 04:46:00;;;;;;;6.87;3.55;;;;;;;16.11;51.59;99581.34;4340443;32;34165;-88
2023/05/05 04:48:29;;;;;;;6.28;3.37;;;;;;;16.38;51.27;99581.22;4335441;32;34498;-88
2023/05/05 04:50:56;;;;;;;7.85;3.53;;;;;;;16.74;50.13;99581.94;4321329;33;32799;-87
2023/05/05 04:53:24;;;;;;;6.75;3.25;;;;;;;16.58;49.90;99585.50;4346970;33;34299;-88
2023/05/05 04:55:52;;;;;;;5.60;3.42;;;;;;;16.98;50.02;99592.28;4327791;33;34903;-90
2023/05/05 04:58:19;;;;;;;6.32;3.42;;;;;;;17.03;49.09;99587.88;4334759;32;33935;-88
2023/05/05 05:00:47;;;;;;;5.95;3.28;;;;;;;17.18;46.80;99583.44;4353310;32;34220;-89
2023/05/05 05:03:14;;;;;;;7.72;3.53;;;;;;;17.49;45.51;99587.53;4334568;32;33949;-91
2023/05/05 05:05:42;;;;;;;7.43;3.30;;;;;;;17.27;44.19;99586.88;4347745;32;34985;-89
2023/05/05 05:08:09;;;;;;;8.77;3.72;;;;;;;16.98;44.14;99583.56;4349566;32;33896;-89
2023/05/05 05:10:39;;;;;;;8.10;3.28;;;;;;;16.62;43.75;99577.62;4346864;33;34176;-89
2023/05/05 05:13:06;;;;;;;5.65;3.08;;;;;;;16.90;42.83;99586.25;4356372;32;34850;-89
2023/05/05 05:15:37;;;;;;;6.93;3.70;;;;;;;17.22;43.07;99599.09;4338651;32;34395;-88
2023/05/05 05:18:05;;;;;;;6.40;3.30;;;;;;;16.48;41.97;99585.56;4333448;33;34897;-89
2023/05/05 05:20:33;;;;;;;6.87;3.75;;;;;;;16.62;42.73;99600.31;4346505;33;33452;-88
2023/05/05 05:23:01;;;;;;;6.62;3.75;;;;;;;16.48;43.04;99598.66;4353085;32;33920;-88
2023/05/05 05:25:29;;;;;;;5.57;3.40;;;;;;;16.95;42.05;99599.31;4357530;32;33983;-88
2023/05/05 05:27:56;;;;;;;7.30;3.47;;;;;;;16.98;42.79;99594.06;4346258;33;34635;-87
2023/05/05 05:30:37;;;;;;;10.23;3.53;;;;;;;16.61;42.60;99588.09;4345928;33;33569;-89
2023/05/05 05:33:05;;;;;;;8.45;4.03;;;;;;;16.96;42.60;99596.66;4345732;33;33942;-87
2023/05/05 05:35:33;;;;;;;9.32;3.80;;;;;;;17.34;42.58;99603.38;4332486;33;34375;-88
2023/05/05 05:38:01;;;;;;;6.20;2.53;;;;;;;17.55;41.00;99601.50;4345413;33;34351;-88
2023/05/05 05:40:29;;;;;;;5.97;3.25;;;;;;;17.99;40.72;99594.09;4346455;33;33801;-87
2023/05/05 05:42:57;;;;;;;6.55;3.15;;;;;;;17.93;41.04;99606.41;4332979;33;34113;-89
2023/05/05 05:45:24;;;;;;;7.30;3.58;;;;;;;17.61;40.67;99615.38;4346502;33;33966;-89
2023/05/05 05:47:53;;;;;;;7.97;3.62;;;;;;;17.45;41.43;99612.03;4346537;33;33511;-89
2023/05/05 05:50:21;;;;;;;8.60;3.65;;;;;;;17.12;41.15;99612.28;4332712;33;33605;-88
2023/05/05 05:52:48;;;;;;;7.90;3.72;;;;;;;17.99;41.04;99609.84;4346166;33;34151;-89
2023/05/05 05:55:16;;;;;;;7.50;3.80;;;;;;;17.56;40.35;99618.94;4344497;33;34275;-89
2023/05/05 05:57:44;;;;;;;7.47;3.53;;;;;;;17.05;41.26;99616.72;4346030;33;34078;-88
2023/05/05 06:00:12;;;;;;;8.07;3.40;;;;;;;16.94;41.77;99616.78;4345699;33;32058;-89
2023/05/05 06:02:41;;;;;;;7.87;3.80;;;;;;;17.17;41.35;99615.75;4344984;33;33982;-89
2023/05/05 06:05:09;;;;;;;7.45;3.72;;;;;;;16.52;42.77;99616.06;4345685;33;34408;-90
2023/05/05 06:07:36;;;;;;;6.90;3.72;;;;;;;17.21;42.62;99612.22;4346442;33;34608;-90
2023/05/05 06:10:05;;;;;;;8.43;4.15;;;;;;;16.91;43.03;99615.91;4340500;33;33369;-90
2023/05/05 06:12:52;;;;;;;10.80;4.55;;;;;;;16.94;42.55;99608.91;4346496;33;33471;-90
2023/05/05 06:15:20;;;;;;;6.72;3.65;;;;;;;16.50;42.78;99612.56;4345975;33;34307;-88
2023/05/05 06:17:48;;;;;;;8.05;4.60;;;;;;;16.46;43.15;99610.00;4346187;33;34716;-89
2023/05/05 06:20:15;;;;;;;8.35;4.05;;;;;;;17.10;42.53;99604.44;4356517;32;33467;-89
2023/05/05 06:22:43;;;;;;;9.32;4.10;;;;;;;16.82;42.55;99602.84;4361201;32;34923;-89
2023/05/05 06:25:11;;;;;;;8.18;4.25;;;;;;;16.92;42.62;99604.56;4360888;32;34409;-88
2023/05/05 06:27:38;;;;;;;9.00;4.43;;;;;;;16.84;43.04;99607.22;4360856;32;34904;-89
2023/05/05 06:30:08;;;;;;;12.00;4.45;;;;;;;17.28;43.01;99603.44;4359426;32;34484;-88
2023/05/05 06:32:36;;;;;;;7.60;3.92;;;;;;;17.31;42.21;99603.41;4360814;32;33768;-88
2023/05/05 06:35:03;;;;;;;11.98;4.82;;;;;;;17.36;42.77;99606.88;4346869;32;33266;-88
2023/05/05 06:37:31;;;;;;;12.88;4.97;;;;;;;17.69;42.58;99599.59;4361051;32;33743;-88
2023/05/05 06:39:58;;;;;;;10.85;4.68;;;;;;;17.57;41.60;99604.94;4355006;32;33274;-88
2023/05/05 06:42:26;;;;;;;8.48;4.50;;;;;;;17.85;42.49;99606.47;4346003;33;34072;-88
2023/05/05 06:44:56;;;;;;;12.75;4.05;;;;;;;18.21;40.38;99593.84;4346096;33;35378;-88
2023/05/05 06:47:24;;;;;;;8.05;4.07;;;;;;;17.90;41.40;99599.44;4332688;33;34511;-89
2023/05/05 06:49:52;;;;;;;9.18;3.97;;;;;;;17.99;42.06;99603.69;4337165;32;33659;-88
2023/05/05 06:52:21;;;;;;;10.02;4.32;;;;;;;18.12;40.21;99597.44;4360484;32;33563;-88
2023/05/05 06:54:49;;;;;;;9.80;4.12;;;;;;;17.94;40.41;99601.12;4333263;33;32942;-88
2023/05/05 06:57:16;;;;;;;9.05;3.70;;;;;;;18.14;40.48;99600.03;4341134;32;33884;-87
2023/05/05 06:59:44;;;;;;;6.72;3.78;;;;;;;18.06;40.68;99601.88;4346484;32;32718;-89
2023/05/05 07:02:11;;;;;;;9.57;3.72;;;;;;;17.97;41.46;99606.34;4360124;32;33894;-89
2023/05/05 07:04:40;;;;;;;9.52;3.95;;;;;;;18.58;39.29;99590.78;4345890;33;35833;-89
2023/05/05 07:07:07;;;;;;;9.35;4.85;;;;;;;18.80;39.71;99605.41;4345500;33;34069;-89
2023/05/05 07:09:35;;;;;;;7.70;4.22;;;;;;;18.45;40.97;99597.97;4344343;33;33797;-92
2023/05/05 07:12:03;;;;;;;9.45;4.37;;;;;;;18.51;40.71;99599.63;4332087;33;33111;-89
2023/05/05 07:14:30;;;;;;;8.77;3.58;;;;;;;18.96;40.57;99599.03;4344566;33;34335;-90
2023/05/05 07:16:58;;;;;;;11.77;4.55;;;;;;;18.66;40.14;99591.56;4345169;33;34365;-91
2023/05/05 07:19:25;;;;;;;8.68;4.22;;;;;;;18.60;40.28;99596.87;4345085;33;34465;-90
2023/05/05 07:21:53;;;;;;;7.32;3.58;;;;;;;18.67;41.09;99598.53;4325968;33;34075;-88
2023/05/05 07:24:20;;;;;;;9.23;4.95;;;;;;;18.91;39.88;99603.50;4345486;33;34130;-88
2023/05/05 07:26:48;;;;;;;11.38;4.40;;;;;;;18.75;40.59;99607.19;4332334;33;34723;-89
2023/05/05 07:29:15;;;;;;;11.27;4.75;;;;;;;18.69;40.67;99605.50;4344748;33;34913;-88
2023/05/05 07:31:43;;;;;;;11.27;4.40;;;;;;;18.63;40.42;99604.72;4343386;33;33250;-91
2023/05/05 07:34:10;;;;;;;9.10;4.18;;;;;;;19.71;40.32;99604.91;4331497;33;33769;-87
2023/05/05 07:36:38;;;;;;;8.73;4.75;;;;;;;19.28;39.90;99597.69;4331834;33;34115;-89
2023/05/05 07:39:06;;;;;;;7.97;4.40;;;;;;;19.53;40.15;99603.41;4332017;33;34202;-91
2023/05/05 07:41:33;;;;;;;8.35;4.22;;;;;;;19.70;40.21;99605.81;4331421;33;33960;-91
2023/05/05 07:44:01;;;;;;;8.52;5.00;;;;;;;19.97;39.89;99604.44;4345645;33;34408;-89
2023/05/05 07:46:28;;;;;;;10.27;4.35;;;;;;;19.45;40.16;99602.69;4345544;33;34677;-89
2023/05/05 07:48:56;;;;;;;8.60;4.10;;;;;;;19.56;40.07;99603.38;4345600;33;33674;-89
2023/05/05 07:51:23;;;;;;;10.05;4.50;;;;;;;20.13;39.93;99597.13;4344865;33;33946;-89
2023/05/05 07:53:51;;;;;;;8.68;4.45;;;;;;;20.17;38.14;99596.16;4345270;33;34401;-90
2023/05/05 07:56:18;;;;;;;10.93;4.82;;;;;;;18.90;41.10;99603.50;4345465;33;34508;-90
2023/05/05 07:58:48;;;;;;;7.65;4.53;;;;;;;19.96;39.78;99607.06;4345471;33;33660;-89
2023/05/05 08:01:15;;;;;;;8.00;4.50;;;;;;;19.50;41.14;99607.84;4345247;33;35109;-90
2023/05/05 08:03:43;;;;;;;9.73;5.40;;;;;;;19.09;41.65;99602.38;4345433;33;34311;-89
2023/05/05 08:06:14;;;;;;;8.65;5.10;;;;;;;18.92;43.18;99609.63;4345075;33;33915;-89
2023/05/05 08:08:42;;;;;;;10.20;4.85;;;;;;;19.32;40.86;99601.12;4345006;33;35299;-89
2023/05/05 08:11:09;;;;;;;8.45;5.43;;;;;;;19.74;40.94;99604.84;4344620;33;33882;-89
2023/05/05 08:13:38;;;;;;;9.98;6.12;;;;;;;19.57;42.41;99610.34;4343895;33;34690;-90
2023/05/05 08:16:05;;;;;;;16.70;5.43;;;;;;;19.48;41.51;99607.03;4332060;33;33984;-89
2023/05/05 08:18:36;;;;;;;11.25;5.18;;;;;;;19.31;41.72;99608.16;4345204;33;33654;-90
2023/05/05 08:21:05;;;;;;;9.70;5.43;;;;;;;19.80;41.38;99603.88;4335294;33;34307;-93
2023/05/05 08:23:35;;;;;;;11.23;5.47;;;;;;;19.42;40.85;99595.69;4331818;33;34286;-89
2023/05/05 08:26:05;;;;;;;13.88;5.72;;;;;;;19.95;40.85;99602.72;4330710;33;33778;-91
2023/05/05 08:28:34;;;;;;;12.15;6.15;;;;;;;20.57;39.86;99595.38;4343800;33;33274;-90
2023/05/05 08:31:02;;;;;;;12.00;4.97;;;;;;;20.40;39.89;99601.84;4344945;33;33834;-89
2023/05/05 08:33:30;;;;;;;8.48;5.22;;;;;;;20.63;39.78;99593.47;4344842;33;33812;-88
2023/05/05 08:35:58;;;;;;;10.50;4.78;;;;;;;21.19;39.16;99595.75;4344906;33;33930;-88
2023/05/05 08:38:26;;;;;;;8.77;6.25;;;;;;;21.29;40.40;99605.19;4328982;33;33499;-91
2023/05/05 08:40:53;;;;;;;12.25;5.28;;;;;;;20.76;39.80;99601.09;4328927;33;33938;-88
2023/05/05 08:43:22;;;;;;;8.88;5.37;;;;;;;21.11;40.35;99602.97;4344816;33;33998;-88
2023/05/05 08:45:50;;;;;;;10.70;5.87;;;;;;;21.11;39.35;99602.97;4331802;33;33993;-88
2023/05/05 08:48:21;;;;;;;11.10;5.25;;;;;;;20.87;39.92;99594.72;4344655;33;33734;-89
2023/05/05 08:50:54;;;;;;;10.38;5.40;;;;;;;21.56;38.88;99600.16;4307703;33;32595;-88
2023/05/05 08:53:43;;;;;;;11.43;6.22;;;;;;;21.55;37.86;99593.12;4344731;33;33909;-89
2023/05/05 08:56:12;;;;;;;10.65;5.35;;;;;;;21.66;37.70;99596.37;4331259;33;34607;-90
2023/05/05 08:58:43;;;;;;;8.52;5.20;;;;;;;21.76;37.89;99592.59;4318988;33;32332;-89
2023/05/05 09:01:11;;;;;;;8.63;5.20;;;;;;;22.03;36.92;99584.84;4344738;33;33434;-89
2023/05/05 09:03:39;;;;;;;8.95;5.93;;;;;;;22.40;37.59;99590.00;4331210;33;34075;-89
2023/05/05 09:06:08;;;;;;;9.05;5.28;;;;;;;22.29;38.12;99582.37;4331453;33;33939;-89
2023/05/05 09:08:37;;;;;;;11.20;5.25;;;;;;;22.34;36.46;99585.75;4344305;33;33505;-89
2023/05/05 09:11:05;;;;;;;10.82;5.30;;;;;;;22.16;38.12;99583.66;4319045;33;33731;-89
2023/05/05 09:13:32;;;;;;;11.18;5.35;;;;;;;22.08;37.24;99575.88;4344592;33;34194;-88
2023/05/05 09:16:17;;;;;;;8.07;5.05;;;;;;;21.62;38.32;99579.75;4338661;33;33710;-89
2023/05/05 09:18:45;;;;;;;10.98;5.50;;;;;;;21.69;39.39;99585.75;4344325;33;34138;-88
2023/05/05 09:21:23;;;;;;;8.63;5.40;;;;;;;22.01;38.14;99565.53;4318944;33;34654;-92
2023/05/05 09:24:10;;;;;;;8.63;5.00;;;;;;;22.01;36.87;99573.44;4330968;33;34167;-88
2023/05/05 09:26:46;;;;;;;12.90;5.53;;;;;;;21.95;37.07;99571.00;4321186;33;34767;-88
2023/05/05 09:29:18;;;;;;;11.00;5.53;;;;;;;22.02;37.93;99569.94;4333042;33;33508;-89
2023/05/05 09:32:07;;;;;;;15.45;6.40;;;;;;;21.38;39.62;99575.97;4346538;33;34621;-88
2023/05/05 09:34:35;;;;;;;12.70;6.15;;;;;;;21.18;38.39;99567.66;4346319;33;35297;-88
2023/05/05 09:37:03;;;;;;;9.32;6.03;;;;;;;21.75;38.47;99569.75;4346511;33;33904;-88
2023/05/05 09:39:30;;;;;;;9.32;5.45;;;;;;;22.76;37.95;99561.59;4346266;33;33404;-88
2023/05/05 09:41:58;;;;;;;11.02;6.10;;;;;;;22.94;36.36;99548.78;4346173;33;34214;-89
2023/05/05 09:44:36;;;;;;;12.43;6.20;;;;;;;22.52;36.26;99559.72;4346581;33;34139;-91
2023/05/05 09:47:04;;;;;;;13.05;5.60;;;;;;;22.45;36.65;99547.59;4346053;33;34857;-89
2023/05/05 09:49:57;;;;;;;9.88;5.20;;;;;;;22.31;36.69;99556.81;4346340;33;34454;-89
2023/05/05 09:52:25;;;;;;;8.85;5.32;;;;;;;22.92;37.18;99548.84;4345808;33;34831;-89
2023/05/05 09:54:55;;;;;;;9.85;6.22;;;;;;;23.02;35.30;99541.47;4346196;33;34211;-88
2023/05/05 09:57:26;;;;;;;13.62;6.20;;;;;;;23.43;35.20;99549.81;4346313;33;33655;-89
2023/05/05 09:59:58;;;;;;;11.73;5.62;;;;;;;23.73;34.11;99540.00;4346332;33;33970;-89
2023/05/05 10:02:44;;;;;;;9.90;5.97;;;;;;;23.10;34.97;99539.44;4332878;33;33941;-89
2023/05/05 10:05:13;;;;;;;9.90;5.78;;;;;;;23.56;35.60;99540.53;4346135;33;34002;-92
2023/05/05 10:07:42;;;;;;;10.80;5.32;;;;;;;23.78;35.75;99533.59;4332856;33;33732;-88
2023/05/05 10:10:16;;;;;;;10.75;4.75;;;;;;;24.13;33.30;99526.19;4332674;33;34100;-89
2023/05/05 10:12:46;;;;;;;7.53;5.20;;;;;;;23.17;38.09;99530.38;4346119;33;34122;-89
2023/05/05 10:15:14;;;;;;;9.80;5.93;;;;;;;23.10;35.73;99534.13;4346111;33;33726;-89
2023/05/05 10:17:47;;;;;;;12.43;6.60;;;;;;;23.43;34.21;99526.00;4345907;33;34951;-89
2023/05/05 10:20:32;;;;;;;12.55;5.62;;;;;;;22.93;35.29;99532.03;4334933;33;34256;-88
2023/05/05 10:23:01;;;;;;;10.52;6.07;;;;;;;23.02;35.14;99536.16;4345953;33;33867;-88
2023/05/05 10:25:32;;;;;;;12.13;5.68;;;;;;;23.04;34.71;99534.34;4332663;33;33921;-89
2023/05/05 10:28:02;;;;;;;9.48;5.47;;;;;;;23.46;33.86;99523.25;4332992;33;33771;-88
2023/05/05 10:30:31;;;;;;;10.25;5.72;;;;;;;23.51;34.30;99521.31;4332675;33;33539;-89
2023/05/05 10:33:21;;;;;;;9.95;6.10;;;;;;;22.63;36.08;99515.34;4332698;33;34110;-88
2023/05/05 10:35:54;;;;;;;10.35;4.80;;;;;;;22.17;35.66;99519.34;4331824;33;34844;-89
2023/05/05 10:38:22;;;;;;;8.13;5.22;;;;;;;22.66;39.84;99528.47;4332624;33;34551;-88
2023/05/05 10:40:54;;;;;;;11.45;6.72;;;;;;;23.14;35.23;99519.03;4332873;33;33763;-89
2023/05/05 10:43:22;;;;;;;9.80;5.45;;;;;;;23.22;34.39;99512.59;4332553;33;34860;-89
2023/05/05 10:45:50;;;;;;;10.77;5.18;;;;;;;23.30;35.03;99515.84;4332592;33;34944;-88
2023/05/05 10:48:21;;;;;;;8.13;5.18;;;;;;;22.75;35.51;99507.03;4332566;33;34001;-89
2023/05/05 10:50:53;;;;;;;8.65;5.07;;;;;;;22.89;35.31;99498.66;4332650;33;33307;-88
2023/05/05 10:53:37;;;;;;;6.55;4.57;;;;;;;23.39;32.41;99497.94;4332490;33;33399;-88
2023/05/05 10:56:15;;;;;;;7.40;4.07;;;;;;;23.58;33.71;99493.72;4332855;33;34124;-89
2023/05/05 10:58:43;;;;;;;9.25;5.03;;;;;;;24.04;34.05;99492.09;4345758;33;33494;-88
2023/05/05 11:01:28;;;;;;;7.43;4.12;;;;;;;24.03;32.10;99477.13;4332430;33;31963;-88
2023/05/05 11:04:16;;;;;;;11.07;4.70;;;;;;;24.07;32.98;99484.03;4345949;33;33566;-89
2023/05/05 11:07:08;;;;;;;9.27;4.82;;;;;;;24.31;34.24;99484.03;4345999;33;33952;-88
2023/05/05 11:09:55;;;;;;;12.57;4.22;;;;;;;24.19;33.46;99485.34;4333077;33;34709;-89
2023/05/05 11:12:23;;;;;;;10.85;4.72;;;;;;;24.16;36.55;99481.03;4332379;33;33079;-88
2023/05/05 11:15:32;;;;;;;10.20;4.78;;;;;;;24.57;34.77;99478.59;4345772;33;34724;-89
2023/05/05 11:18:01;;;;;;;12.95;6.32;;;;;;;24.40;32.07;99473.97;4332701;33;35056;-89
2023/05/05 11:20:39;;;;;;;7.68;5.12;;;;;;;24.32;31.86;99469.84;4345644;33;33961;-89
2023/05/05 11:23:06;;;;;;;10.13;5.53;;;;;;;24.01;33.38;99468.34;4345821;33;33067;-89
2023/05/05 11:25:37;;;;;;;12.45;5.93;;;;;;;24.04;33.13;99471.75;4345749;33;34056;-92
2023/05/05 11:28:07;;;;;;;10.43;4.55;;;;;;;24.18;32.66;99465.94;4345668;33;34795;-88
2023/05/05 11:30:35;;;;;;;8.43;5.03;;;;;;;24.68;33.32;99468.44;4345572;33;33726;-88
2023/05/05 11:33:22;;;;;;;11.20;5.85;;;;;;;24.74;32.50;99464.69;4332417;33;34424;-89
2023/05/05 11:36:06;;;;;;;8.55;5.57;;;;;;;24.55;32.06;99464.56;4332105;33;33331;-89
2023/05/05 11:38:41;;;;;;;11.15;5.57;;;;;;;25.06;31.21;99455.38;4345585;33;34421;-88
2023/05/05 11:41:12;;;;;;;11.77;6.10;;;;;;;24.74;32.53;99454.94;4345790;33;33679;-89
2023/05/05 11:43:41;;;;;;;11.40;5.60;;;;;;;24.67;32.87;99449.94;4345627;33;33659;-88
2023/05/05 11:46:13;;;;;;;12.98;5.60;;;;;;;24.54;33.00;99444.25;4332253;33;34342;-89
2023/05/05 11:48:45;;;;;;;10.93;5.50;;;;;;;24.84;31.25;99441.28;4331658;33;34325;-88
2023/05/05 11:51:16;;;;;;;7.72;4.95;;;;;;;24.85;31.92;99443.00;4346116;33;33898;-88